Time;durP1;ratioP1;P1;durP2;ratioP2;P2;SDS_P1;SDS_P2;PMS_P1;PMS_P2;Temp;Humidity;BMP_temperature;BMP_pressure;BME280_temperature;BME280_humidity;BME280_pressure;Samples;Min_cycle;Max_cycle;Signal;HPM_P1;HPM_P2
2023/04/02 00:02:21;;;;;;;56.55;8.10;;;14.60;98.30;;;;;;5054151;28;20052;-73
2023/04/02 00:05:29;;;;;;;48.38;7.68;;;14.80;98.40;;;;;;5054246;28;20056;-73
2023/04/02 00:08:39;;;;;;;51.85;7.95;;;14.60;98.20;;;;;;5053245;28;20040;-73
2023/04/02 00:11:49;;;;;;;55.72;8.63;;;14.50;98.50;;;;;;5053669;28;20052;-73
2023/04/02 00:14:54;;;;;;;43.85;7.88;;;14.60;98.40;;;;;;5053219;28;20044;-73
2023/04/02 00:17:59;;;;;;;49.72;8.00;;;14.60;98.30;;;;;;5052978;28;20044;-73
2023/04/02 00:21:03;;;;;;;50.50;7.82;;;;;;;;;;5053402;28;20060;-73
2023/04/02 00:24:14;;;;;;;43.28;8.93;;;14.40;98.30;;;;;;5053485;28;20045;-73
2023/04/02 00:27:20;;;;;;;47.92;8.13;;;12.20;98.20;;;;;;5052800;28;20048;-73
2023/04/02 00:30:24;;;;;;;60.38;9.82;;;;;;;;;;5053758;28;20044;-73
2023/04/02 00:33:30;;;;;;;56.22;7.53;;;14.50;98.70;;;;;;5053876;28;20386;-75
2023/04/02 00:36:36;;;;;;;53.15;8.45;;;14.30;98.40;;;;;;5052844;28;20032;-73
2023/04/02 00:39:40;;;;;;;50.88;7.55;;;;;;;;;;5053470;28;20056;-73
2023/04/02 00:42:45;;;;;;;43.85;7.93;;;14.10;99.00;;;;;;5052593;28;20068;-75
2023/04/02 00:45:54;;;;;;;49.20;8.07;;;11.90;98.40;;;;;;5053306;28;20044;-72
2023/04/02 00:49:08;;;;;;;55.58;7.88;;;14.00;99.30;;;;;;5052980;28;20044;-73
2023/04/02 00:52:15;;;;;;;40.45;6.93;;;14.30;99.40;;;;;;5052364;28;20056;-73
2023/04/02 00:55:40;;;;;;;50.88;7.35;;;14.90;99.20;;;;;;5052346;28;20036;-73
2023/04/02 00:58:49;;;;;;;45.60;8.05;;;14.40;98.90;;;;;;5052930;28;20192;-73
2023/04/02 01:02:00;;;;;;;44.25;8.23;;;14.30;98.90;;;;;;5029504;28;20048;-73
2023/04/02 01:05:21;;;;;;;41.97;7.40;;;14.10;99.30;;;;;;5052184;28;20511;-73
2023/04/02 01:08:47;;;;;;;55.63;8.77;;;14.20;99.40;;;;;;5053006;28;20044;-73
2023/04/02 01:11:54;;;;;;;43.67;7.43;;;14.10;99.50;;;;;;5051719;28;20065;-73
2023/04/02 01:15:16;;;;;;;46.35;7.25;;;13.40;99.20;;;;;;5052800;28;20040;-72
2023/04/02 01:18:45;;;;;;;45.42;6.88;;;14.00;99.00;;;;;;5040486;28;20515;-73
2023/04/02 01:21:51;;;;;;;47.45;7.95;;;;;;;;;;5052692;28;20404;-72
2023/04/02 01:24:59;;;;;;;38.22;7.22;;;14.10;99.30;;;;;;5052330;28;20047;-73
2023/04/02 01:28:13;;;;;;;47.78;8.05;;;13.90;99.50;;;;;;5051763;28;20052;-74
2023/04/02 01:31:18;;;;;;;43.50;8.07;;;;;;;;;;5052170;28;20052;-72
2023/04/02 01:34:26;;;;;;;52.10;8.35;;;13.80;99.30;;;;;;5051364;28;20036;-73
2023/04/02 01:37:43;;;;;;;35.03;7.65;;;13.90;99.20;;;;;;5052306;28;20063;-73
2023/04/02 01:41:10;;;;;;;48.20;7.68;;;14.00;99.00;;;;;;5050674;28;20061;-73
2023/04/02 01:44:27;;;;;;;45.22;8.65;;;13.90;99.20;;;;;;5052143;28;20048;-73
2023/04/02 01:47:32;;;;;;;47.17;8.73;;;;;;;;;;5051255;28;20044;-73
2023/04/02 01:50:38;;;;;;;54.95;8.40;;;13.90;98.80;;;;;;5050893;28;20037;-73
2023/04/02 01:53:42;;;;;;;51.85;7.57;;;13.90;99.20;;;;;;5050965;28;20048;-73
2023/04/02 01:56:47;;;;;;;56.20;8.85;;;12.40;98.60;;;;;;5039875;28;20036;-73
2023/04/02 01:59:51;;;;;;;45.38;8.52;;;;;;;;;;5051021;28;20048;-73
2023/04/02 02:02:56;;;;;;;54.17;8.10;;;13.90;98.80;;;;;;5051071;28;20033;-73
2023/04/02 02:06:01;;;;;;;53.97;8.35;;;13.80;98.80;;;;;;5051804;28;20048;-73
2023/04/02 02:09:07;;;;;;;40.47;8.73;;;14.00;98.70;;;;;;5051547;28;20036;-73
2023/04/02 02:12:14;;;;;;;50.67;9.05;;;13.70;98.70;;;;;;5050586;28;20044;-74
2023/04/02 02:15:21;;;;;;;54.72;9.38;;;14.30;99.20;;;;;;5050441;28;20052;-73
2023/04/02 02:18:26;;;;;;;52.35;7.72;;;;;;;;;;5051437;28;20051;-73
2023/04/02 02:21:40;;;;;;;45.97;8.75;;;13.60;99.20;;;;;;5051420;28;20060;-73
2023/04/02 02:24:44;;;;;;;43.47;8.73;;;;;;;;;;5050104;28;20413;-73
2023/04/02 02:28:13;;;;;;;46.50;8.68;;;14.90;99.90;;;;;;5050370;28;20044;-73
2023/04/02 02:31:26;;;;;;;45.67;9.20;;;13.30;99.30;;;;;;5050430;28;20048;-72
2023/04/02 02:34:48;;;;;;;38.88;8.38;;;13.60;99.30;;;;;;5050524;28;20068;-73
2023/04/02 02:38:24;;;;;;;55.37;9.47;;;15.10;99.80;;;;;;5050294;28;20047;-73
2023/04/02 02:41:43;;;;;;;48.42;9.02;;;16.10;99.70;;;;;;5050021;28;20412;-73
2023/04/02 02:44:50;;;;;;;50.60;9.02;;;13.40;99.30;;;;;;5050305;28;20378;-73
2023/04/02 02:47:56;;;;;;;45.92;9.35;;;13.50;99.50;;;;;;5051209;28;20048;-73
2023/04/02 02:51:03;;;;;;;52.05;9.00;;;13.20;99.40;;;;;;5050182;28;20043;-74
2023/04/02 02:54:08;;;;;;;44.38;9.20;;;13.00;99.50;;;;;;5050151;28;20047;-74
2023/04/02 02:57:22;;;;;;;47.67;9.60;;;13.50;99.70;;;;;;5050220;28;20420;-72
2023/04/02 03:00:27;;;;;;;48.80;9.35;;;;;;;;;;5049976;28;20515;-72
2023/04/02 03:03:33;;;;;;;47.97;9.63;;;;;;;;;;5050127;28;20037;-73
2023/04/02 03:06:39;;;;;;;45.97;9.45;;;13.30;99.40;;;;;;5038779;28;20164;-72
2023/04/02 03:10:04;;;;;;;46.80;10.40;;;13.20;99.50;;;;;;5038611;28;20044;-73
2023/04/02 03:13:28;;;;;;;59.17;11.02;;;13.00;99.60;;;;;;5050025;28;20059;-73
2023/04/02 03:16:39;;;;;;;43.72;9.45;;;13.10;99.90;;;;;;5050854;28;20040;-73
2023/04/02 03:19:56;;;;;;;69.32;11.55;;;12.80;99.90;;;;;;5049480;28;20518;-73
2023/04/02 03:23:29;;;;;;;46.88;9.15;;;12.60;99.90;;;;;;5049490;28;20060;-73
2023/04/02 03:26:41;;;;;;;46.83;9.40;;;12.50;99.90;;;;;;5049751;28;20048;-73
2023/04/02 03:30:14;;;;;;;52.78;9.60;;;12.70;99.90;;;;;;5050457;28;20043;-73
2023/04/02 03:33:33;;;;;;;53.30;9.95;;;12.70;99.90;;;;;;5049841;28;20055;-73
2023/04/02 03:36:45;;;;;;;56.97;10.15;;;12.70;99.90;;;;;;5049856;28;20044;-73
2023/04/02 03:40:14;;;;;;;44.15;9.32;;;12.60;99.90;;;;;;5049584;28;20044;-74
2023/04/02 03:43:25;;;;;;;48.97;10.30;;;12.80;99.90;;;;;;5049761;28;20059;-73
2023/04/02 03:46:43;;;;;;;58.00;10.57;;;13.00;99.90;;;;;;5049477;28;20044;-73
2023/04/02 03:49:57;;;;;;;50.15;9.63;;;13.20;99.90;;;;;;5049782;28;20055;-73
2023/04/02 03:53:04;;;;;;;52.72;9.73;;;13.10;99.90;;;;;;5049561;28;20365;-73
2023/04/02 03:56:21;;;;;;;41.10;8.98;;;13.10;99.90;;;;;;5038434;28;20504;-73
2023/04/02 03:59:49;;;;;;;57.72;11.02;;;13.20;99.90;;;;;;5050602;28;20104;-74
2023/04/02 04:03:01;;;;;;;45.70;9.50;;;12.40;99.90;;;;;;5038324;28;20534;-73
2023/04/02 04:06:12;;;;;;;;;;;12.70;99.90;;;;;;5053860;28;20056;-73
2023/04/02 04:09:31;;;;;;;39.05;9.18;;;13.00;99.90;;;;;;5053528;28;19983;-73
2023/04/02 04:12:41;;;;;;;40.35;10.50;;;12.50;99.90;;;;;;5054039;28;20036;-73
2023/04/02 04:15:52;;;;;;;49.40;9.18;;;12.60;99.90;;;;;;5052728;28;20052;-73
2023/04/02 04:19:14;;;;;;;61.22;9.63;;;12.90;99.90;;;;;;5052959;28;20040;-73
2023/04/02 04:22:32;;;;;;;61.10;10.23;;;12.60;99.90;;;;;;5052707;28;20052;-74
2023/04/02 04:26:18;;;;;;;49.83;9.82;;;12.60;99.90;;;;;;5052942;28;20070;-73
2023/04/02 04:29:29;;;;;;;41.67;9.23;;;;;;;;;;5052632;28;20048;-74
2023/04/02 04:32:41;;;;;;;51.10;10.27;;;13.50;99.90;;;;;;5052319;28;20029;-73
2023/04/02 04:35:58;;;;;;;43.60;9.02;;;12.40;99.90;;;;;;5052780;28;20055;-74
2023/04/02 04:39:22;;;;;;;40.72;8.40;;;12.50;99.90;;;;;;5052475;28;20460;-73
2023/04/02 04:42:32;;;;;;;49.95;8.82;;;12.50;99.90;;;;;;5052163;28;20051;-73
2023/04/02 04:45:45;;;;;;;55.88;16.73;;;12.70;99.90;;;;;;5052633;28;20104;-73
2023/04/02 04:48:58;;;;;;;58.78;14.25;;;12.50;99.90;;;;;;5052551;28;20040;-73
2023/04/02 04:52:21;;;;;;;55.92;12.65;;;12.80;99.90;;;;;;5052627;28;20043;-73
2023/04/02 04:55:33;;;;;;;50.17;10.95;;;12.70;99.90;;;;;;5053085;28;20063;-73
2023/04/02 04:58:44;;;;;;;43.60;9.07;;;12.70;99.90;;;;;;5051962;28;20508;-74
2023/04/02 05:02:01;;;;;;;52.17;9.93;;;12.60;99.90;;;;;;5051964;28;20056;-73
2023/04/02 05:05:36;;;;;;;45.55;9.55;;;12.50;99.90;;;;;;5051783;28;20052;-72
2023/04/02 05:08:47;;;;;;;40.67;8.40;;;12.50;99.90;;;;;;5051981;28;20051;-73
2023/04/02 05:12:17;;;;;;;46.85;10.95;;;12.60;99.90;;;;;;5051963;28;20393;-73
2023/04/02 05:15:29;;;;;;;47.63;8.70;;;12.70;99.90;;;;;;5051192;28;20060;-72
2023/04/02 05:18:42;;;;;;;36.00;8.98;;;12.70;99.90;;;;;;5051837;28;20047;-74
2023/04/02 05:21:47;;;;;;;;;;;12.80;99.90;;;;;;5051983;28;20052;-73
2023/04/02 05:25:10;;;;;;;37.28;9.38;;;12.70;99.90;;;;;;5040275;28;19943;-74
2023/04/02 05:28:26;;;;;;;38.40;9.80;;;12.70;99.90;;;;;;5051705;28;20488;-73
2023/04/02 05:31:41;;;;;;;49.72;11.80;;;12.80;99.90;;;;;;5051280;28;20040;-73
2023/04/02 05:34:53;;;;;;;43.78;13.32;;;13.20;99.90;;;;;;5052561;28;20046;-73
2023/04/02 05:38:00;;;;;;;43.45;13.43;;;14.40;99.90;;;;;;5040496;28;20040;-73
2023/04/02 05:41:25;;;;;;;49.58;14.48;;;14.70;99.90;;;;;;5051255;28;20532;-72
2023/04/02 05:44:33;;;;;;;50.42;14.45;;;13.80;99.90;;;;;;5052142;28;20043;-73
2023/04/02 05:47:42;;;;;;;53.00;11.30;;;14.70;99.90;;;;;;5050998;28;20052;-72
2023/04/02 05:50:57;;;;;;;49.50;12.98;;;14.60;98.80;;;;;;5028827;28;20521;-71
2023/04/02 05:54:23;;;;;;;61.22;13.20;;;15.60;99.00;;;;;;5040392;28;20389;-72
2023/04/02 05:57:50;;;;;;;44.78;10.65;;;13.90;98.60;;;;;;5039652;28;20035;-73
2023/04/02 06:01:12;;;;;;;44.53;10.60;;;16.10;99.30;;;;;;5050795;28;20075;-72
2023/04/02 06:04:35;;;;;;;40.28;11.05;;;14.50;98.80;;;;;;5050885;28;20048;-72
2023/04/02 06:07:40;;;;;;;51.10;10.65;;;;;;;;;;5050936;28;20048;-73
2023/04/02 06:11:12;;;;;;;46.13;9.82;;;14.30;99.70;;;;;;5050687;28;20187;-73
2023/04/02 06:14:19;;;;;;;45.83;8.88;;;;;;;;;;5050881;28;20052;-73
2023/04/02 06:17:26;;;;;;;44.88;8.27;;;;;;;;;;5051648;28;20067;-72
2023/04/02 06:20:30;;;;;;;55.72;8.65;;;;;;;;;;5050554;28;20481;-72
2023/04/02 06:23:40;;;;;;;44.08;9.02;;;14.30;99.90;;;;;;5050864;28;20048;-72
2023/04/02 06:26:52;;;;;;;;;;;14.30;99.90;;;;;;5051066;28;20385;-72
2023/04/02 06:30:02;;;;;;;38.95;9.05;;;15.70;99.60;;;;;;5039158;28;19916;-73
2023/04/02 06:33:11;;;;;;;44.20;7.60;;;14.90;99.30;;;;;;5050431;28;20393;-73
2023/04/02 06:36:16;;;;;;;33.78;7.45;;;15.30;99.10;;;;;;5050372;28;20393;-72
2023/04/02 06:39:22;;;;;;;47.47;8.07;;;16.00;98.20;;;;;;5039064;28;20392;-74
2023/04/02 06:42:36;;;;;;;39.28;8.13;;;16.50;96.90;;;;;;5050458;28;20063;-75
2023/04/02 06:45:53;;;;;;;33.38;6.85;;;16.90;96.20;;;;;;5049351;28;20048;-75
2023/04/02 06:50:07;;;;;;;35.42;6.78;;;17.20;95.00;;;;;;5052076;28;20044;-75
2023/04/02 06:53:26;;;;;;;33.22;6.63;;;17.40;94.60;;;;;;5048260;28;20147;-74
2023/04/02 06:56:41;;;;;;;46.00;7.72;;;17.40;94.20;;;;;;5048302;28;20048;-74
2023/04/02 06:59:46;;;;;;;39.08;7.65;;;17.40;93.90;;;;;;5048561;28;20676;-75
2023/04/02 07:02:58;;;;;;;33.35;7.20;;;17.60;94.00;;;;;;5050238;28;20040;-75
2023/04/02 07:06:02;;;;;;;36.88;6.50;;;17.60;93.80;;;;;;5050368;28;20048;-75
2023/04/02 07:09:08;;;;;;;32.97;6.53;;;17.80;93.70;;;;;;5049974;28;20044;-74
2023/04/02 07:12:23;;;;;;;32.00;6.50;;;18.00;92.90;;;;;;5050158;28;20401;-74
2023/04/02 07:15:27;;;;;;;40.17;7.22;;;18.20;92.40;;;;;;5050248;28;20051;-74
2023/04/02 07:18:48;;;;;;;29.95;6.70;;;18.50;92.00;;;;;;5051196;28;20063;-75
2023/04/02 07:21:52;;;;;;;39.53;6.22;;;18.90;91.60;;;;;;5049396;28;20056;-74
2023/04/02 07:24:58;;;;;;;35.42;5.90;;;19.30;90.80;;;;;;5038545;28;20099;-75
2023/04/02 07:28:03;;;;;;;36.03;6.85;;;19.40;90.20;;;;;;5050082;28;20193;-74
2023/04/02 07:31:27;;;;;;;35.05;5.60;;;19.60;89.70;;;;;;5050768;28;20052;-75
2023/04/02 07:34:30;;;;;;;31.92;5.78;;;19.90;88.80;;;;;;5050527;28;20040;-75
2023/04/02 07:37:35;;;;;;;33.72;6.65;;;20.30;88.30;;;;;;5050481;28;20040;-76
2023/04/02 07:40:39;;;;;;;37.20;6.30;;;20.30;86.60;;;;;;5054533;28;20055;-74
2023/04/02 07:43:43;;;;;;;36.35;6.00;;;20.00;86.60;;;;;;5053634;28;20044;-74
2023/04/02 07:46:47;;;;;;;32.88;5.32;;;19.90;87.90;;;;;;5054647;28;20040;-74
2023/04/02 07:49:53;;;;;;;37.35;6.00;;;19.90;86.90;;;;;;5054129;28;20047;-74
2023/04/02 07:56:20;;;;;;;29.45;6.03;;;20.20;86.30;;;;;;5053356;28;20048;-74
2023/04/02 07:59:29;;;;;;;33.55;5.10;;;20.40;85.50;;;;;;5054423;28;20059;-76
2023/04/02 08:02:33;;;;;;;32.65;6.32;;;20.50;84.60;;;;;;5054330;28;20056;-74
2023/04/02 08:05:37;;;;;;;32.58;5.63;;;20.50;84.40;;;;;;5054047;28;20508;-75
2023/04/02 08:08:42;;;;;;;27.02;5.45;;;20.50;84.50;;;;;;5053959;28;20048;-72
2023/04/02 08:11:46;;;;;;;32.05;5.43;;;20.50;83.80;;;;;;5053807;28;20048;-73
2023/04/02 08:14:50;;;;;;;33.25;6.03;;;20.30;84.40;;;;;;5054203;28;20044;-74
2023/04/02 08:17:54;;;;;;;25.35;5.10;;;19.70;85.00;;;;;;5054311;28;20421;-74
2023/04/02 08:20:59;;;;;;;31.90;5.45;;;19.60;85.00;;;;;;5053676;28;20059;-74
2023/04/02 08:24:03;;;;;;;33.33;5.95;;;19.30;85.20;;;;;;5052527;28;20060;-74
2023/04/02 08:27:13;;;;;;;47.55;7.45;;;19.10;86.50;;;;;;5054063;28;20515;-76
2023/04/02 08:30:18;;;;;;;53.92;6.75;;;19.10;86.20;;;;;;5053476;28;20405;-77
2023/04/02 08:33:22;;;;;;;33.10;5.75;;;19.10;87.00;;;;;;5053716;28;20036;-72
2023/04/02 08:36:31;;;;;;;26.50;5.05;;;19.60;86.20;;;;;;5052442;28;20051;-75
2023/04/02 08:39:35;;;;;;;32.30;6.15;;;20.30;85.00;;;;;;5053624;28;20507;-73
2023/04/02 08:43:10;;;;;;;28.83;6.15;;;20.60;82.00;;;;;;5053729;28;20048;-75
2023/04/02 08:46:32;;;;;;;30.95;7.72;;;20.70;82.40;;;;;;5053264;28;20400;-75
2023/04/02 08:49:41;;;;;;;29.50;5.13;;;20.80;82.50;;;;;;5052330;28;20056;-73
2023/04/02 08:52:45;;;;;;;32.17;5.22;;;21.00;81.10;;;;;;5052145;28;20048;-73
2023/04/02 08:56:16;;;;;;;28.15;5.65;;;21.00;81.40;;;;;;5053028;28;20108;-75
2023/04/02 08:59:36;;;;;;;32.67;6.35;;;21.10;81.40;;;;;;5052659;28;20044;-76
2023/04/02 09:02:53;;;;;;;20.95;5.13;;;21.30;81.20;;;;;;5053150;28;20056;-74
2023/04/02 09:06:00;;;;;;;28.25;5.65;;;21.20;79.00;;;;;;5053064;28;20036;-74
2023/04/02 09:09:05;;;;;;;32.10;5.55;;;20.90;78.40;;;;;;5052205;28;20048;-74
2023/04/02 09:12:25;;;;;;;30.27;4.85;;;20.60;78.60;;;;;;5052690;28;20040;-74
2023/04/02 09:15:34;;;;;;;19.52;4.38;;;20.40;78.40;;;;;;5052259;28;20047;-75
2023/04/02 09:18:42;;;;;;;22.50;4.55;;;20.00;79.70;;;;;;5052516;28;20048;-75
2023/04/02 09:22:18;;;;;;;29.48;5.50;;;19.80;81.10;;;;;;5052130;28;20052;-73
2023/04/02 09:25:33;;;;;;;39.65;6.22;;;19.90;81.40;;;;;;5052962;28;20044;-73
2023/04/02 09:28:38;;;;;;;32.90;5.00;;;20.10;81.20;;;;;;5052599;28;20393;-75
2023/04/02 09:32:25;;;;;;;35.25;5.00;;;20.00;81.00;;;;;;5052345;28;20495;-73
2023/04/02 09:35:31;;;;;;;26.67;4.72;;;19.80;81.00;;;;;;5052680;28;20048;-74
2023/04/02 09:38:35;;;;;;;34.53;6.72;;;19.70;81.50;;;;;;5051691;28;20044;-74
2023/04/02 09:41:40;;;;;;;26.77;5.18;;;19.60;82.20;;;;;;5052214;28;20051;-74
2023/04/02 09:44:45;;;;;;;56.67;7.15;;;19.60;82.10;;;;;;5052306;28;20044;-74
2023/04/02 09:47:51;;;;;;;25.92;6.60;;;19.70;82.60;;;;;;5052347;28;20373;-74
2023/04/02 09:51:15;;;;;;;35.67;4.95;;;19.90;82.40;;;;;;5052287;28;20499;-74
2023/04/02 09:54:21;;;;;;;52.70;6.95;;;19.90;82.70;;;;;;5052518;28;20052;-75
2023/04/02 09:57:26;;;;;;;31.35;8.38;;;20.00;83.60;;;;;;5052129;28;20040;-73
2023/04/02 10:00:31;;;;;;;33.78;9.25;;;20.10;83.70;;;;;;5051993;28;20044;-73
2023/04/02 10:03:35;;;;;;;28.25;7.30;;;20.20;82.80;;;;;;5051918;28;20040;-72
2023/04/02 10:06:49;;;;;;;33.50;7.00;;;20.40;81.80;;;;;;5051801;28;20032;-74
2023/04/02 10:10:14;;;;;;;30.67;5.63;;;20.40;81.50;;;;;;5051725;28;20052;-73
2023/04/02 10:13:26;;;;;;;36.83;6.07;;;20.40;80.80;;;;;;5051487;28;20044;-75
2023/04/02 10:16:52;;;;;;;27.00;5.93;;;20.20;81.30;;;;;;5051877;28;20385;-75
2023/04/02 10:20:28;;;;;;;34.67;5.72;;;20.10;82.00;;;;;;5051739;28;20048;-76
2023/04/02 10:23:33;;;;;;;44.22;5.85;;;20.00;81.70;;;;;;5050360;28;20531;-73
2023/04/02 10:27:28;;;;;;;30.23;7.18;;;19.90;81.90;;;;;;5050477;28;20044;-73
2023/04/02 10:31:02;;;;;;;33.22;5.65;;;19.80;83.30;;;;;;5050540;28;20044;-75
2023/04/02 10:34:18;;;;;;;35.90;6.32;;;19.90;83.30;;;;;;5051287;28;20076;-74
2023/04/02 10:37:34;;;;;;;33.15;5.18;;;20.10;82.80;;;;;;5051330;28;20393;-75
2023/04/02 10:40:45;;;;;;;49.35;5.95;;;20.40;82.50;;;;;;5050362;28;20060;-74
2023/04/02 10:44:09;;;;;;;27.10;5.45;;;20.70;81.90;;;;;;5051295;28;20060;-73
2023/04/02 10:47:39;;;;;;;27.65;4.95;;;20.90;80.80;;;;;;5050503;28;20040;-73
2023/04/02 10:51:11;;;;;;;28.42;5.75;;;21.00;80.50;;;;;;5051136;28;20044;-73
2023/04/02 10:54:53;;;;;;;19.35;5.55;;;20.90;80.50;;;;;;5050350;28;20048;-74
2023/04/02 10:58:04;;;;;;;29.65;6.03;;;20.80;82.00;;;;;;5050970;28;20044;-73
2023/04/02 11:01:15;;;;;;;;;;;20.90;82.30;;;;;;5051188;28;20055;-73
2023/04/02 11:04:36;;;;;;;29.77;5.95;;;20.90;82.20;;;;;;5050287;28;19911;-72
2023/04/02 11:08:00;;;;;;;30.02;6.43;;;21.00;82.10;;;;;;5050268;28;20100;-74
2023/04/02 11:11:30;;;;;;;24.50;5.55;;;20.90;82.20;;;;;;5049840;28;20040;-74
2023/04/02 11:14:35;;;;;;;28.50;5.53;;;20.80;81.50;;;;;;5054166;28;20480;-75
2023/04/02 11:17:42;;;;;;;33.88;8.90;;;20.70;82.20;;;;;;5055057;28;20036;-74
2023/04/02 11:20:49;;;;;;;35.88;8.75;;;20.70;81.90;;;;;;5054669;28;20043;-74
2023/04/02 11:24:00;;;;;;;27.05;9.52;;;20.80;82.20;;;;;;5054860;28;20060;-75
2023/04/02 11:27:10;;;;;;;28.27;6.03;;;20.80;81.80;;;;;;5055106;28;20048;-78
2023/04/02 11:30:25;;;;;;;21.10;4.93;;;20.90;81.50;;;;;;5054801;28;20053;-74
2023/04/02 11:33:29;;;;;;;38.95;6.60;;;20.90;81.30;;;;;;5055027;28;20051;-74
2023/04/02 11:36:52;;;;;;;25.02;4.97;;;20.80;80.60;;;;;;5054732;28;20051;-76
2023/04/02 11:39:59;;;;;;;23.25;4.82;;;20.80;80.40;;;;;;5053663;28;20504;-74
2023/04/02 11:43:46;;;;;;;26.80;6.85;;;20.70;79.70;;;;;;5054845;28;20048;-74
2023/04/02 11:46:51;;;;;;;28.67;5.13;;;20.70;80.00;;;;;;5041121;28;20453;-75
2023/04/02 11:49:55;;;;;;;27.23;6.28;;;20.60;80.90;;;;;;5052185;28;20401;-74
2023/04/02 11:53:28;;;;;;;22.55;5.60;;;20.70;81.00;;;;;;5054605;28;20044;-74
2023/04/02 11:56:38;;;;;;;24.30;4.78;;;20.70;80.90;;;;;;5054546;28;20047;-74
2023/04/02 12:00:09;;;;;;;24.65;5.45;;;20.70;80.10;;;;;;5053941;28;20059;-74
2023/04/02 12:03:44;;;;;;;24.95;4.10;;;20.60;80.50;;;;;;5054403;28;20083;-74
2023/04/02 12:07:17;;;;;;;29.45;4.50;;;20.40;79.10;;;;;;5054352;28;20035;-74
2023/04/02 12:10:27;;;;;;;21.92;5.18;;;20.40;79.20;;;;;;5053757;28;20539;-73
2023/04/02 12:13:40;;;;;;;21.70;4.32;;;20.40;79.60;;;;;;5053615;28;20063;-73
2023/04/02 12:16:44;;;;;;;24.80;4.72;;;20.40;79.50;;;;;;5053984;28;20040;-72
2023/04/02 12:19:50;;;;;;;29.10;4.35;;;20.40;78.70;;;;;;5041691;28;20039;-73
2023/04/02 12:22:56;;;;;;;19.52;4.40;;;20.40;79.20;;;;;;5053768;28;20051;-73
2023/04/02 12:26:05;;;;;;;26.17;4.68;;;20.40;79.20;;;;;;5052695;28;20052;-75
2023/04/02 12:29:27;;;;;;;20.13;4.78;;;20.40;78.90;;;;;;5053744;28;20040;-74
2023/04/02 12:32:33;;;;;;;21.33;4.38;;;20.40;78.80;;;;;;5052712;28;20035;-76
2023/04/02 12:35:37;;;;;;;23.55;5.97;;;20.40;79.30;;;;;;5053670;28;20055;-73
2023/04/02 12:38:50;;;;;;;21.40;7.13;;;20.50;79.60;;;;;;5053955;28;20051;-74
2023/04/02 12:41:56;;;;;;;22.55;6.13;;;20.50;79.70;;;;;;5053486;28;20056;-75
2023/04/02 12:45:01;;;;;;;25.67;5.20;;;20.40;79.50;;;;;;5053521;28;20487;-74
2023/04/02 12:48:09;;;;;;;23.67;4.65;;;20.30;79.70;;;;;;5052740;28;20048;-75
2023/04/02 12:51:13;;;;;;;18.45;4.70;;;20.30;80.70;;;;;;5052128;28;20055;-72
2023/04/02 12:54:19;;;;;;;17.20;4.53;;;20.30;81.10;;;;;;5052287;28;20044;-74
2023/04/02 12:57:30;;;;;;;22.90;7.03;;;20.40;79.60;;;;;;5053232;28;20227;-76
2023/04/02 13:00:34;;;;;;;34.88;14.88;;;20.40;79.30;;;;;;5053516;28;20055;-77
2023/04/02 13:03:39;;;;;;;19.30;5.10;;;20.40;79.10;;;;;;5053162;28;20048;-77
2023/04/02 13:06:50;;;;;;;19.63;4.75;;;20.40;79.00;;;;;;5052736;28;20087;-75
2023/04/02 13:10:04;;;;;;;21.70;5.03;;;20.40;78.90;;;;;;5053384;28;20060;-78
2023/04/02 13:13:19;;;;;;;17.40;4.53;;;20.40;78.60;;;;;;5052748;28;20048;-75
2023/04/02 13:16:26;;;;;;;18.85;4.65;;;20.40;78.20;;;;;;5053217;28;20044;-76
2023/04/02 13:19:32;;;;;;;17.60;4.57;;;20.40;78.70;;;;;;5052873;28;20044;-76
2023/04/02 13:22:36;;;;;;;19.25;4.32;;;20.40;78.70;;;;;;5052844;28;20056;-74
2023/04/02 13:25:42;;;;;;;19.42;3.38;;;20.40;78.90;;;;;;5052492;28;20052;-75
2023/04/02 13:29:19;;;;;;;17.95;3.58;;;20.30;79.70;;;;;;5052205;28;20514;-76
2023/04/02 13:32:24;;;;;;;19.15;3.58;;;20.30;79.80;;;;;;5040196;28;20064;-75
2023/04/02 13:35:28;;;;;;;28.88;4.70;;;20.20;78.90;;;;;;5051819;28;20044;-75
2023/04/02 13:38:32;;;;;;;15.82;3.67;;;20.10;78.80;;;;;;5052369;28;20207;-74
2023/04/02 13:41:47;;;;;;;18.80;3.83;;;20.00;79.10;;;;;;5052632;28;20048;-77
2023/04/02 13:44:51;;;;;;;31.20;5.50;;;20.00;79.60;;;;;;5052172;28;20048;-75
2023/04/02 13:47:59;;;;;;;28.92;4.25;;;20.00;80.10;;;;;;5052213;28;20040;-75
2023/04/02 13:51:03;;;;;;;20.80;3.63;;;20.00;80.00;;;;;;5040788;28;20063;-76
2023/04/02 13:54:20;;;;;;;16.83;3.70;;;19.90;80.70;;;;;;5051553;28;20044;-74
2023/04/02 13:57:25;;;;;;;19.98;3.90;;;20.00;80.20;;;;;;5052390;28;20052;-76
2023/04/02 14:00:30;;;;;;;22.05;4.40;;;20.10;79.90;;;;;;5052192;28;20052;-75
2023/04/02 14:03:35;;;;;;;27.05;4.40;;;20.10;80.40;;;;;;5051181;28;20051;-77
2023/04/02 14:06:45;;;;;;;23.15;4.82;;;20.10;79.80;;;;;;5052066;28;20044;-75
2023/04/02 14:10:00;;;;;;;21.67;3.70;;;20.10;79.70;;;;;;5051745;28;20044;-76
2023/04/02 14:13:16;;;;;;;22.63;4.00;;;20.10;78.40;;;;;;5051841;28;20036;-76
2023/04/02 14:16:35;;;;;;;21.88;4.60;;;20.00;78.80;;;;;;5049890;28;20051;-76
2023/04/02 14:19:51;;;;;;;19.17;3.63;;;20.00;79.70;;;;;;5049954;28;20036;-76
2023/04/02 14:23:01;;;;;;;17.83;3.72;;;20.00;80.40;;;;;;5050890;28;20393;-75
2023/04/02 14:26:27;;;;;;;22.88;4.18;;;20.00;79.00;;;;;;5050578;28;20048;-75
2023/04/02 14:29:57;;;;;;;20.20;4.13;;;19.90;77.90;;;;;;5051421;28;20494;-75
2023/04/02 14:33:21;;;;;;;19.90;3.72;;;19.60;78.60;;;;;;5050562;28;20511;-75
2023/04/02 14:36:50;;;;;;;22.00;4.43;;;19.70;80.70;;;;;;5052009;28;20044;-76
2023/04/02 14:40:17;;;;;;;21.35;4.53;;;19.70;81.10;;;;;;5051470;28;20063;-74
2023/04/02 14:43:31;;;;;;;27.92;4.35;;;19.70;80.90;;;;;;5051111;28;20412;-75
2023/04/02 14:46:37;;;;;;;26.98;4.38;;;19.70;80.60;;;;;;5051215;28;20040;-74
2023/04/02 14:49:44;;;;;;;22.58;3.67;;;19.70;80.70;;;;;;5051319;28;20056;-75
2023/04/02 14:52:52;;;;;;;20.70;3.92;;;19.70;80.80;;;;;;5051062;28;20492;-75
2023/04/02 14:56:00;;;;;;;30.40;4.63;;;19.70;81.10;;;;;;5050970;28;20108;-75
2023/04/02 14:59:33;;;;;;;18.58;3.47;;;19.70;80.90;;;;;;5049993;28;20091;-74
2023/04/02 15:02:50;;;;;;;27.08;4.63;;;19.60;81.30;;;;;;5051134;28;20511;-75
2023/04/02 15:06:01;;;;;;;24.67;3.95;;;19.50;81.80;;;;;;5051174;28;20040;-75
2023/04/02 15:09:10;;;;;;;16.92;4.53;;;19.40;82.70;;;;;;5051078;28;20060;-75
2023/04/02 15:12:20;;;;;;;;;;;19.40;84.10;;;;;;5051789;28;20044;-74
2023/04/02 15:15:43;;;;;;;41.47;6.43;;;19.30;84.60;;;;;;5051399;28;20379;-75
2023/04/02 15:18:54;;;;;;;23.23;5.07;;;19.20;84.70;;;;;;5050449;28;20044;-75
2023/04/02 15:22:31;;;;;;;25.38;4.00;;;19.10;85.90;;;;;;5050812;28;20381;-74
2023/04/02 15:25:53;;;;;;;32.17;5.07;;;19.00;85.90;;;;;;5050625;28;20056;-74
2023/04/02 15:29:15;;;;;;;25.38;4.22;;;18.90;85.80;;;;;;5049751;28;20194;-75
2023/04/02 15:32:36;;;;;;;24.75;5.13;;;18.90;86.00;;;;;;5051274;28;20047;-76
2023/04/02 15:35:44;;;;;;;;;;;18.70;86.10;;;;;;5051197;28;20052;-75
2023/04/02 15:39:14;;;;;;;27.92;4.75;;;18.70;86.30;;;;;;5050416;28;19915;-75
2023/04/02 15:42:20;;;;;;;27.15;4.35;;;18.70;86.80;;;;;;5050126;28;20060;-74
2023/04/02 15:45:31;;;;;;;36.05;6.10;;;18.60;86.80;;;;;;5049921;28;20396;-74
2023/04/02 15:48:42;;;;;;;26.25;4.55;;;18.60;87.10;;;;;;5050863;28;20048;-74
2023/04/02 15:51:57;;;;;;;22.15;5.03;;;18.60;87.40;;;;;;5049786;28;20044;-74
2023/04/02 15:55:25;;;;;;;28.50;7.18;;;18.60;87.20;;;;;;5049457;28;20059;-73
2023/04/02 15:58:51;;;;;;;29.48;7.07;;;18.60;87.70;;;;;;5050714;28;20492;-75
2023/04/02 16:02:29;;;;;;;25.38;6.10;;;18.50;87.30;;;;;;5054171;28;20495;-74
2023/04/02 16:05:54;;;;;;;38.78;8.95;;;18.50;87.50;;;;;;5053893;28;20532;-74
2023/04/02 16:09:29;;;;;;;24.08;5.80;;;18.50;87.50;;;;;;5054016;28;20048;-74
2023/04/02 16:12:35;;;;;;;40.17;13.60;;;18.50;86.90;;;;;;5053373;28;20067;-74
2023/04/02 16:15:46;;;;;;;26.92;5.50;;;18.50;87.30;;;;;;5054261;28;20059;-74
2023/04/02 16:18:57;;;;;;;31.60;9.00;;;18.30;86.70;;;;;;5053719;28;20051;-73
2023/04/02 16:22:24;;;;;;;28.27;5.85;;;18.30;87.00;;;;;;5053488;28;20059;-74
2023/04/02 16:25:37;;;;;;;31.92;7.40;;;18.20;86.70;;;;;;5053544;28;20064;-73
2023/04/02 16:29:15;;;;;;;40.58;9.40;;;18.20;87.00;;;;;;5053706;28;20492;-75
2023/04/02 16:32:46;;;;;;;25.52;6.45;;;18.20;87.60;;;;;;5053695;28;20039;-73
2023/04/02 16:36:17;;;;;;;36.42;8.65;;;18.20;88.10;;;;;;5052607;28;20416;-74
2023/04/02 16:39:45;;;;;;;30.23;6.95;;;18.30;88.60;;;;;;5053184;28;20507;-74
2023/04/02 16:43:12;;;;;;;23.58;6.00;;;18.20;88.40;;;;;;5053905;28;20060;-75
2023/04/02 16:46:40;;;;;;;16.30;4.93;;;18.20;88.90;;;;;;5053417;28;20044;-75
2023/04/02 16:49:54;;;;;;;26.00;5.15;;;18.20;90.00;;;;;;5053342;28;20048;-74